Latest Weather Observations for Devonport Airport

IDT60801

Issued at 12:02 am EST Wednesday 4 May 2016 (issued every 30 minutes, with the page automatically refreshed every 10 minutes)

About weather observations | Map of weather stations | Latest weather observations for TAS | Other Formats
Station Details ID: 091126 Name: DEVONPORT AIRPORT Lat: -41.17 Lon: 146.43 Height: 8.0 m
Data from the previous 72 hours. | See also: Recent months at Devonport Airport
Date/Time
EST
Temp
°C
App
Temp
°C
Dew
Point
Rel
Hum
%
Delta-T
°C
Wind Press
QNH
hPa
Press
MSL
hPa
Rain
since 9 am
mm
Dir
 
Spd
km/h
Gust
km/h
Spd
kts
Gust
kts
04/12:00am 9.7 1.7 5.7 76 1.8 W 37 52 20 28 1001.1 1001.1 6.8
 
Date/Time
EST
Temp
°C
App
Temp
°C
Dew
Point
Rel
Hum
%
Delta-T
°C
Wind Press
QNH
hPa
Press
MSL
hPa
Rain
since 9 am
mm
Dir
 
Spd
km/h
Gust
km/h
Spd
kts
Gust
kts
03/11:30pm 9.4 1.8 5.6 77 1.7 WNW 35 44 19 24 1000.8 1000.8 6.8
03/11:00pm 9.2 2.8 5.0 75 1.9 WNW 28 35 15 19 1000.5 1000.5 6.8
03/10:30pm 9.4 0.8 4.8 73 2.1 W 39 48 21 26 1000.4 1000.4 6.8
03/10:16pm 9.4 3.1 5.6 77 1.7 W 28 50 15 27 1000.3 1000.3 6.8
03/10:00pm 8.9 2.5 5.1 77 1.7 W 28 33 15 18 1000.5 1000.5 6.8
03/09:30pm 9.1 2.4 5.7 79 1.5 W 30 37 16 20 1000.0 1000.0 6.8
03/09:00pm 8.9 1.8 5.5 79 1.5 WNW 32 39 17 21 999.4 999.4 6.8
03/08:42pm 9.5 0.2 4.9 73 2.1 W 43 65 23 35 999.6 999.6 6.6
03/08:30pm 10.3 1.9 5.5 72 2.2 WNW 39 52 21 28 999.1 999.1 6.4
03/08:00pm 10.3 0.0 4.7 68 2.5 WNW 48 63 26 34 998.3 998.3 6.4
03/07:46pm 10.3 1.7 4.7 68 2.5 WNW 39 61 21 33 997.9 997.9 6.4
03/07:30pm 10.5 2.5 5.9 73 2.1 WNW 37 44 20 24 997.7 997.7 6.4
03/07:00pm 10.3 2.7 5.7 73 2.1 WNW 35 44 19 24 997.1 997.1 6.4
03/06:30pm 9.7 3.4 5.9 77 1.7 W 28 37 15 20 996.8 996.8 6.4
03/06:00pm 10.2 2.7 6.2 76 1.9 WNW 35 46 19 25 995.9 995.9 6.4
03/05:30pm 10.3 3.4 6.6 78 1.7 W 32 43 17 23 995.0 995.0 6.4
03/05:00pm 10.1 4.8 7.0 81 1.5 W 24 32 13 17 994.4 994.4 6.4
03/04:30pm 10.2 4.3 7.4 83 1.3 W 28 35 15 19 994.0 994.0 6.4
03/04:00pm 10.7 4.1 7.8 82 1.4 W 32 46 17 25 993.2 993.2 6.2
03/03:30pm 11.3 5.6 8.5 83 1.4 W 28 32 15 17 992.3 992.3 6.0
03/03:00pm 11.5 5.1 8.7 83 1.4 W 32 41 17 22 991.6 991.6 5.8
03/02:30pm 12.7 6.2 9.0 78 1.9 W 33 43 18 23 991.2 991.2 5.6
03/02:00pm 13.6 5.5 10.2 80 1.8 WNW 43 54 23 29 990.6 990.6 5.6
03/01:30pm 13.3 4.0 9.2 76 2.1 WNW 48 59 26 32 991.2 991.2 5.6
03/01:00pm 13.8 5.4 9.5 75 2.2 WNW 44 59 24 32 991.1 991.1 5.4
03/12:30pm 14.2 6.9 10.2 77 2.1 WNW 39 50 21 27 991.4 991.4 5.4
03/12:00pm 14.0 8.4 12.0 88 1.1 WNW 33 43 18 23 991.1 991.1 5.4
03/11:30am 14.0 7.0 12.6 91 0.8 WNW 41 52 22 28 990.7 990.7 5.4
03/11:18am 13.6 6.6 12.5 93 0.6 WNW 41 50 22 27 991.3 991.3 5.2
03/11:09am 13.7 7.9 12.8 94 0.5 WNW 35 46 19 25 991.4 991.4 5.2
03/11:00am 13.3 5.7 12.4 94 0.5 WNW 44 61 24 33 991.3 991.3 4.8
03/10:55am 13.9 5.0 13.0 94 0.5 NW 52 69 28 37 991.2 991.2 4.4
03/10:42am 14.1 3.0 12.7 91 0.8 NW 63 82 34 44 990.6 990.6 3.4
03/10:38am 15.4 4.6 13.8 90 0.9 NW 63 80 34 43 990.2 990.2 2.6
03/10:30am 15.5 3.9 13.7 89 1.0 NW 67 89 36 48 990.1 990.1 2.2
03/10:20am 15.4 4.1 13.4 88 1.1 NW 65 87 35 47 990.2 990.2 2.0
03/10:00am 14.7 4.3 13.6 93 0.6 NW 61 83 33 45 990.7 990.7 1.8
03/09:30am 14.7 6.3 13.6 93 0.6 NW 50 69 27 37 991.1 991.1 1.0
03/09:05am 14.4 6.6 13.1 92 0.7 NW 46 65 25 35 991.7 991.7 0.0
03/09:00am 14.3 5.7 13.0 92 0.7 NW 50 65 27 35 991.7 991.7 8.8
03/08:55am 14.2 5.2 12.9 92 0.7 NW 52 63 28 34 991.8 991.8 8.6
03/08:53am 14.2 5.2 12.9 92 0.7 NW 52 63 28 34 991.9 991.9 8.6
03/08:30am 14.3 7.2 13.3 94 0.6 NW 43 54 23 29 992.1 992.1 8.2
03/08:02am 14.1 6.8 12.8 92 0.7 WNW 43 67 23 36 992.5 992.5 7.0
03/08:00am 14.2 7.3 12.9 92 0.7 WNW 41 57 22 31 992.5 992.5 7.0
03/07:57am 14.3 7.8 12.9 91 0.8 WNW 39 57 21 31 992.5 992.5 6.6
03/07:50am 14.2 6.3 12.6 90 0.9 WNW 46 59 25 32 992.4 992.4 6.4
03/07:49am 14.2 6.3 12.6 90 0.9 WNW 46 59 25 32 992.5 992.5 6.4
03/07:35am 14.2 5.5 12.4 89 1.0 NW 50 70 27 38 992.7 992.7 6.0
03/07:32am 14.2 5.5 12.4 89 1.0 NW 50 70 27 38 992.5 992.5 6.0
03/07:30am 14.3 5.6 12.7 90 0.9 NW 50 61 27 33 992.6 992.6 6.0
03/07:25am 14.1 5.0 12.5 90 0.9 NW 52 70 28 38 992.6 992.6 5.8
03/07:12am 14.3 4.4 12.3 88 1.1 NW 56 72 30 39 992.5 992.5 5.8
03/07:03am 14.5 5.2 12.9 90 0.9 NW 54 74 29 40 992.5 992.5 5.8
03/07:00am 14.5 5.6 13.0 91 0.8 NW 52 74 28 40 992.6 992.6 5.8
03/06:56am 14.6 6.2 13.5 93 0.6 NW 50 69 27 37 992.6 992.6 5.8
03/06:38am 14.0 4.3 12.9 93 0.6 NW 56 80 30 43 992.7 992.7 5.6
03/06:30am 13.9 1.5 12.3 90 0.9 NW 69 95 37 51 992.5 992.5 4.8
03/06:00am 16.2 4.5 13.3 83 1.6 NNW 67 91 36 49 991.6 991.6 3.0
03/05:33am 16.2 2.7 12.9 81 1.8 NNW 76 100 41 54 991.9 991.9 3.0
03/05:30am 16.4 2.8 12.6 78 2.1 NNW 76 102 41 55 991.8 991.8 3.0
03/05:00am 16.9 3.9 12.2 74 2.6 NNW 72 93 39 50 992.1 992.1 3.0
03/04:30am 16.9 4.2 12.0 73 2.7 NNW 70 91 38 49 992.6 992.6 3.0
03/04:00am 16.7 4.0 11.8 73 2.7 NNW 70 95 38 51 992.9 992.9 3.0
03/03:30am 16.5 4.0 11.9 74 2.5 NNW 69 89 37 48 993.8 993.8 3.0
03/03:19am 16.0 4.0 12.4 79 2.0 NNW 67 100 36 54 993.9 993.9 3.0
03/03:00am 15.6 2.9 12.0 79 2.0 NNW 70 93 38 50 994.0 994.0 3.0
03/02:58am 15.7 3.2 11.9 78 2.1 NNW 69 91 37 49 994.2 994.2 3.0
03/02:31am 16.7 4.5 11.6 72 2.8 NNW 67 85 36 46 994.8 994.8 3.0
03/02:30am 16.7 4.2 12.0 74 2.6 NNW 69 85 37 46 994.8 994.8 3.0
03/02:00am 16.9 5.4 11.4 70 3.0 NNW 63 82 34 44 995.4 995.4 3.0
03/01:30am 16.9 5.0 11.4 70 3.0 NNW 65 87 35 47 996.3 996.3 3.0
03/01:02am 16.8 6.4 11.3 70 3.0 NNW 57 80 31 43 996.9 996.9 3.0
03/01:00am 16.7 6.6 11.6 72 2.8 NNW 56 72 30 39 997.1 997.1 3.0
03/12:30am 16.9 5.1 10.5 66 3.4 NNW 63 89 34 48 997.1 997.1 3.0
03/12:00am 16.8 5.1 10.9 68 3.2 NNW 63 82 34 44 998.1 998.1 3.0
 
Date/Time
EST
Temp
°C
App
Temp
°C
Dew
Point
Rel
Hum
%
Delta-T
°C
Wind Press
QNH
hPa
Press
MSL
hPa
Rain
since 9 am
mm
Dir
 
Spd
km/h
Gust
km/h
Spd
kts
Gust
kts
02/11:30pm 16.8 6.9 11.1 69 3.1 NNW 54 72 29 39 998.7 998.7 3.0
02/11:02pm 16.9 5.7 11.2 69 3.1 NNW 61 80 33 43 998.9 998.9 3.0
02/11:00pm 16.9 5.7 11.2 69 3.1 NNW 61 78 33 42 999.0 999.0 3.0
02/10:36pm 16.8 5.2 11.3 70 3.0 NNW 63 82 34 44 999.1 999.1 3.0
02/10:30pm 16.8 5.2 11.1 69 3.1 NNW 63 80 34 43 999.1 999.1 3.0
02/10:06pm 16.7 5.0 10.8 68 3.2 NNW 63 83 34 45 999.4 999.4 3.0
02/10:00pm 16.8 5.6 11.1 69 3.1 NNW 61 76 33 41 999.6 999.6 3.0
02/09:30pm 16.7 5.8 11.0 69 3.1 NNW 59 83 32 45 1000.1 1000.1 3.0
02/09:00pm 16.7 5.5 11.2 70 3.0 NW 61 82 33 44 1000.4 1000.4 3.0
02/08:30pm 16.2 5.3 10.9 71 2.8 NNW 59 80 32 43 1000.6 1000.6 3.0
02/08:10pm 16.6 5.6 10.5 67 3.2 NNW 59 78 32 42 1000.7 1000.7 2.6
02/08:00pm 16.6 6.0 10.7 68 3.2 NNW 57 74 31 40 1000.9 1000.9 2.6
02/07:30pm 16.3 5.5 11.2 72 2.7 NW 59 87 32 47 1001.0 1001.0 2.6
02/07:01pm 15.2 5.1 11.6 79 1.9 NNW 56 74 30 40 1001.4 1001.4 2.6
02/07:00pm 15.2 4.9 11.6 79 1.9 NNW 57 74 31 40 1001.4 1001.4 2.6
02/06:36pm 15.6 5.7 11.0 74 2.5 NNW 54 72 29 39 1001.3 1001.3 2.6
02/06:30pm 15.4 5.6 11.6 78 2.0 NW 54 74 29 40 1001.5 1001.5 2.6
02/06:28pm 15.4 5.3 11.8 79 1.9 NW 56 74 30 40 1001.6 1001.6 2.6
02/06:25pm 14.8 4.5 11.6 81 1.7 NNW 57 74 31 40 1001.6 1001.6 2.6
02/06:00pm 15.6 5.3 11.2 75 2.4 NNW 56 76 30 41 1001.6 1001.6 2.2
02/05:30pm 15.5 6.1 11.5 77 2.2 NNW 52 70 28 38 1001.8 1001.8 2.2
02/05:13pm 15.1 5.8 11.7 80 1.8 NNW 52 70 28 38 1001.9 1001.9 2.2
02/05:00pm 15.7 5.7 10.7 72 2.7 NNW 54 70 29 38 1002.0 1002.0 2.2
02/04:46pm 15.7 5.4 11.1 74 2.5 NW 56 74 30 40 1002.0 1002.0 2.2
02/04:30pm 15.8 5.9 11.2 74 2.5 NW 54 67 29 36 1002.2 1002.2 2.2
02/04:00pm 15.6 5.7 11.2 75 2.4 NW 54 72 29 39 1002.4 1002.4 2.2
02/03:46pm 15.7 5.8 11.1 74 2.5 NW 54 72 29 39 1002.6 1002.6 2.2
02/03:30pm 15.5 5.4 10.5 72 2.6 NW 54 69 29 37 1002.6 1002.6 2.2
02/03:00pm 15.8 5.5 11.2 74 2.5 NW 56 72 30 39 1002.7 1002.7 2.2
02/02:30pm 15.9 6.1 11.3 74 2.5 NW 54 70 29 38 1002.9 1002.9 2.2
02/02:00pm 15.7 5.8 11.1 74 2.5 NW 54 74 29 40 1003.1 1003.1 2.2
02/01:38pm 15.2 5.8 11.4 78 2.0 NW 52 72 28 39 1002.7 1002.7 2.2
02/01:31pm 14.2 4.9 11.7 85 1.3 NW 52 70 28 38 1003.1 1003.1 2.2
02/01:30pm 14.1 4.3 11.6 85 1.3 NW 54 70 29 38 1003.2 1003.2 2.2
02/01:21pm 14.0 5.4 11.7 86 1.2 NW 48 69 26 37 1003.4 1003.4 2.2
02/01:04pm 14.8 6.4 11.0 78 2.0 NW 46 65 25 35 1003.7 1003.7 1.6
02/01:00pm 15.2 7.4 11.8 80 1.8 NW 44 59 24 32 1003.6 1003.6 1.6
02/12:47pm 14.8 8.6 12.8 88 1.1 WNW 37 56 20 30 1004.0 1004.0 1.6
02/12:35pm 12.7 4.7 11.1 90 0.8 WNW 44 56 24 30 1004.4 1004.4 1.6
02/12:30pm 13.1 5.3 11.3 89 1.0 WNW 43 56 23 30 1004.5 1004.5 1.4
02/12:07pm 13.0 6.0 11.4 90 0.8 NW 39 59 21 32 1004.9 1004.9 0.8
02/12:01pm 14.0 8.8 11.5 85 1.3 WNW 30 57 16 31 1004.9 1004.9 0.6
02/12:00pm 14.0 8.8 11.7 86 1.2 WNW 30 39 16 21 1004.9 1004.9 0.6
02/11:59am 13.8 9.0 11.5 86 1.2 WNW 28 39 15 21 1004.9 1004.9 0.6
02/11:42am 12.7 6.4 9.7 82 1.5 WNW 33 46 18 25 1005.3 1005.3 0.4
02/11:30am 15.2 9.8 11.0 76 2.2 WNW 30 37 16 20 1005.4 1005.4 0.0
02/11:00am 12.8 8.3 10.0 83 1.4 WNW 24 39 13 21 1006.2 1006.2 0.0
02/10:30am 13.9 9.2 9.1 73 2.4 WNW 24 32 13 17 1006.2 1006.2 0.0
02/10:00am 13.4 8.7 9.3 76 2.1 WNW 24 30 13 16 1006.6 1006.6 0.0
02/09:30am 13.5 8.0 9.0 74 2.3 WNW 28 32 15 17 1006.6 1006.6 0.0
02/09:00am 12.8 7.2 8.9 77 2.0 WNW 28 35 15 19 1006.8 1006.8 5.2
02/08:30am 12.4 6.8 8.9 79 1.8 WNW 28 35 15 19 1006.9 1006.9 5.2
02/08:00am 11.8 5.3 8.3 79 1.7 WNW 32 41 17 22 1007.0 1007.0 5.2
02/07:30am 11.4 6.5 8.3 81 1.5 WNW 24 32 13 17 1006.8 1006.8 5.2
02/07:00am 11.0 5.5 7.5 79 1.7 W 26 32 14 17 1006.9 1006.9 5.2
02/06:30am 10.5 5.2 6.8 78 1.7 W 24 30 13 16 1006.8 1006.8 5.2
02/06:00am 9.7 6.0 6.1 78 1.7 WSW 15 22 8 12 1007.0 1007.0 5.2
02/05:30am 10.2 6.5 6.5 78 1.7 W 15 24 8 13 1007.3 1007.3 5.2
02/05:00am 10.0 5.0 6.3 78 1.7 W 22 28 12 15 1007.3 1007.3 5.2
02/04:30am 10.6 4.5 6.6 76 1.9 WNW 28 39 15 21 1007.1 1007.1 5.2
02/04:00am 10.4 4.3 6.5 77 1.8 W 28 37 15 20 1007.1 1007.1 5.2
02/03:30am 10.2 4.4 6.2 76 1.9 WNW 26 33 14 18 1007.2 1007.2 5.2
02/03:00am 10.2 4.4 6.4 77 1.8 W 26 32 14 17 1007.3 1007.3 5.2
02/02:30am 10.0 4.9 6.0 76 1.8 W 22 32 12 17 1007.6 1007.6 5.2
02/02:00am 9.5 4.7 5.5 76 1.8 W 20 30 11 16 1007.4 1007.4 5.2
02/01:30am 9.7 3.4 5.5 75 1.9 W 28 39 15 21 1007.3 1007.3 5.2
02/01:00am 10.0 3.3 5.6 74 2.0 W 30 39 16 21 1007.2 1007.2 5.2
02/12:30am 10.3 3.1 5.7 73 2.1 W 33 43 18 23 1007.1 1007.1 5.2
02/12:00am 10.4 3.1 5.6 72 2.2 WNW 33 46 18 25 1007.1 1007.1 5.2
 
Date/Time
EST
Temp
°C
App
Temp
°C
Dew
Point
Rel
Hum
%
Delta-T
°C
Wind Press
QNH
hPa
Press
MSL
hPa
Rain
since 9 am
mm
Dir
 
Spd
km/h
Gust
km/h
Spd
kts
Gust
kts
01/11:30pm 10.2 3.1 5.6 73 2.1 W 32 39 17 21 1006.8 1006.8 5.2
01/11:00pm 10.1 4.4 5.1 71 2.3 W 24 33 13 18 1006.9 1006.9 5.2
01/10:30pm 9.9 3.4 4.9 71 2.2 W 28 39 15 21 1006.8 1006.8 5.2
01/10:00pm 10.4 4.0 5.4 71 2.3 W 28 35 15 19 1006.7 1006.7 5.2
01/09:30pm 10.4 4.5 5.6 72 2.2 W 26 35 14 19 1006.5 1006.5 5.2
01/09:00pm 10.3 3.9 5.1 70 2.4 W 28 37 15 20 1005.9 1005.9 5.2
01/08:30pm 10.6 2.9 5.2 69 2.5 W 35 46 19 25 1004.9 1004.9 5.2
01/08:00pm 10.8 4.7 4.9 67 2.7 W 26 35 14 19 1004.8 1004.8 5.2
01/07:30pm 11.0 3.6 4.9 66 2.8 W 33 54 18 29 1004.3 1004.3 5.2
01/07:10pm 11.4 4.0 5.1 65 2.9 W 33 52 18 28 1003.6 1003.6 5.2
01/07:00pm 11.2 4.1 5.3 67 2.7 W 32 41 17 22 1003.5 1003.5 5.2
01/06:40pm 11.8 4.6 5.0 63 3.1 W 32 50 17 27 1003.0 1003.0 5.2
01/06:30pm 11.9 4.1 4.9 62 3.2 W 35 50 19 27 1002.6 1002.6 5.2
01/06:00pm 12.1 4.4 5.5 64 3.1 W 35 56 19 30 1001.5 1001.5 5.2
01/05:52pm 12.3 4.3 5.5 63 3.2 W 37 56 20 30 1001.1 1001.1 5.2
01/05:30pm 12.6 3.9 5.8 63 3.2 W 41 54 22 29 1000.4 1000.4 5.2
01/05:10pm 12.6 5.1 6.4 66 2.9 W 35 54 19 29 999.8 999.8 5.2
01/05:00pm 12.9 4.3 6.3 64 3.2 W 41 54 22 29 999.3 999.3 5.2
01/04:30pm 12.9 3.7 6.5 65 3.1 W 44 63 24 34 998.8 998.8 5.2
01/04:00pm 12.9 4.3 6.5 65 3.1 W 41 63 22 34 997.8 997.8 5.2
01/03:38pm 13.0 4.8 6.4 64 3.1 W 39 59 21 32 997.2 997.2 5.2
01/03:30pm 13.0 5.3 7.2 68 2.8 W 37 48 20 26 997.2 997.2 5.2
01/03:01pm 12.9 3.8 6.7 66 3.0 W 44 65 24 35 996.3 996.3 5.2
01/03:00pm 12.9 3.8 6.9 67 2.9 W 44 61 24 33 996.4 996.4 5.2
01/02:36pm 12.5 3.7 7.2 70 2.6 W 43 61 23 33 995.9 995.9 5.2
01/02:30pm 12.5 2.7 7.0 69 2.6 W 48 63 26 34 995.7 995.7 5.2
01/02:01pm 12.6 2.9 7.7 72 2.4 W 48 70 26 38 994.8 994.8 5.2
01/02:00pm 12.6 3.0 7.9 73 2.3 W 48 61 26 33 994.8 994.8 5.2
01/01:30pm 12.9 2.6 8.2 73 2.3 W 52 74 28 40 993.3 993.3 5.2
01/01:24pm 13.1 2.2 9.0 76 2.1 W 56 74 30 40 993.3 993.3 5.2
01/01:15pm 13.0 1.5 10.0 82 1.5 W 61 80 33 43 993.4 993.4 5.2
01/01:14pm 12.9 1.0 9.9 82 1.5 W 63 80 34 43 993.4 993.4 5.2
01/01:00pm 14.4 4.6 11.6 83 1.5 WNW 54 80 29 43 992.5 992.5 5.2
01/12:41pm 13.7 3.5 11.4 86 1.2 WNW 56 74 30 40 992.2 992.2 5.2
01/12:36pm 15.2 6.0 12.3 83 1.6 WNW 52 70 28 38 991.9 991.9 4.8
01/12:30pm 15.6 6.5 12.4 81 1.8 WNW 52 65 28 35 991.7 991.7 4.8
01/12:07pm 16.5 7.7 12.3 76 2.3 NW 50 70 27 38 991.4 991.4 4.8
01/12:00pm 16.3 7.7 13.0 81 1.9 NW 50 63 27 34 991.6 991.6 4.8
01/11:32am 16.1 9.6 15.5 96 0.3 NW 44 56 24 30 992.5 992.5 4.8
01/11:30am 16.0 9.5 15.5 97 0.3 NW 44 54 24 29 992.5 992.5 4.8
01/11:27am 15.8 9.2 15.3 97 0.3 NW 44 61 24 33 992.6 992.6 4.8
01/11:10am 15.8 9.3 15.6 99 0.1 NNW 44 61 24 33 993.1 993.1 4.8
01/11:05am 15.1 7.9 14.8 98 0.2 NNW 46 61 25 33 993.1 993.1 4.8
01/11:00am 15.8 8.9 15.5 98 0.2 NNW 46 56 25 30 993.2 993.2 4.8
01/10:58am 16.0 9.1 15.7 98 0.2 NNW 46 59 25 32 993.3 993.3 4.8
01/10:55am 16.0 9.2 15.8 99 0.1 NNW 46 59 25 32 993.5 993.5 4.8
01/10:42am 14.4 7.4 14.2 99 0.1 NNW 44 63 24 34 994.2 994.2 4.8
01/10:38am 14.5 6.7 14.2 98 0.2 NNW 48 61 26 33 994.4 994.4 4.2
01/10:30am 15.6 7.8 15.3 98 0.2 NNW 50 63 27 34 994.6 994.6 4.2
01/10:06am 14.0 9.1 13.8 99 0.1 NNW 32 54 17 29 995.4 995.4 4.0
01/10:00am 13.5 9.2 13.3 99 0.1 N 28 37 15 20 995.9 995.9 4.0
01/09:53am 12.7 7.2 12.5 99 0.1 NNW 33 46 18 25 996.1 996.1 4.0
01/09:42am 12.2 5.0 12.0 99 0.1 NNW 41 59 22 32 996.3 996.3 4.0
01/09:34am 10.8 1.0 10.2 96 0.3 NNW 52 93 28 50 996.4 996.4 4.0
01/09:31am 10.5 0.9 9.3 92 0.6 N 50 93 27 50 995.8 995.8 1.8
01/09:30am 12.4 3.9 10.6 89 0.9 N 46 89 25 48 996.1 996.1 0.4
01/09:29am 16.2 9.3 13.9 86 1.3 N 43 67 23 36 996.1 996.1 0.0
01/09:00am 15.9 9.3 13.6 86 1.3 N 41 54 22 29 997.0 997.0 13.8
01/08:30am 15.1 11.7 13.8 92 0.7 N 24 37 13 20 997.4 997.4 13.8
01/08:29am 15.0 11.6 13.7 92 0.7 N 24 37 13 20 997.4 997.4 13.8
01/08:17am 14.5 13.5 13.5 94 0.6 NNE 11 17 6 9 997.9 997.9 13.8
01/08:00am 13.6 13.1 12.7 94 0.5 ENE 7 11 4 6 997.7 997.7 13.8
01/07:48am 13.6 11.5 12.5 93 0.6 ESE 15 26 8 14 997.5 997.5 13.8
01/07:37am 13.7 12.4 12.4 92 0.7 E 11 26 6 14 997.1 997.1 13.6
01/07:30am 14.0 13.5 12.7 92 0.7 NW 7 13 4 7 999.1 999.1 13.2
01/07:29am 14.0 13.1 12.7 92 0.7 NW 9 15 5 8 999.4 999.4 13.0
01/07:00am 14.1 10.8 12.7 91 0.8 WNW 22 28 12 15 999.6 999.6 11.0
01/06:33am 14.4 10.0 12.8 90 0.9 WNW 28 39 15 21 1000.1 1000.1 9.0
01/06:30am 14.4 9.6 12.8 90 0.9 WNW 30 39 16 21 999.8 999.8 8.8
01/06:17am 15.1 10.1 13.5 90 0.9 NW 32 39 17 21 999.8 999.8 8.4
01/06:00am 15.3 9.4 13.5 89 1.0 NW 37 46 20 25 1000.0 1000.0 7.6
01/05:30am 16.0 9.3 12.2 78 2.1 NW 39 50 21 27 1000.1 1000.1 7.2
01/05:19am 16.8 11.1 12.9 78 2.2 N 35 59 19 32 1000.1 1000.1 7.2
01/05:00am 18.2 14.3 15.5 84 1.6 NNE 30 37 16 20 999.4 999.4 7.2
01/04:30am 18.3 13.9 15.2 82 1.8 NNE 32 39 17 21 1000.2 1000.2 7.2
01/04:00am 18.0 14.0 15.3 84 1.6 NNE 30 35 16 19 1000.9 1000.9 7.2
01/03:30am 17.8 14.3 15.6 87 1.3 NNE 28 33 15 18 1001.5 1001.5 7.2
01/03:00am 17.5 15.0 16.2 92 0.8 NE 24 28 13 15 1002.3 1002.3 7.2
01/02:30am 16.9 16.2 16.3 96 0.4 NE 15 24 8 13 1002.9 1002.9 7.2
01/02:00am 15.3 15.4 14.5 95 0.5 SE 7 11 4 6 1003.7 1003.7 7.2
01/01:30am 15.4 15.7 14.4 94 0.6 SE 6 9 3 5 1004.3 1004.3 7.2
01/01:00am 16.4 17.0 15.4 94 0.6 SW 6 9 3 5 1005.2 1005.2 7.2
01/12:30am 16.0 16.4 14.7 92 0.7 SSW 6 9 3 5 1006.2 1006.2 7.2

Other Formats:

Comma delimited format used in spreadsheet applications
http://www.bom.gov.au/fwo/IDT60801/IDT60801.95960.axf

JavaScript Object Notation format (JSON) in row-major order
http://www.bom.gov.au/fwo/IDT60801/IDT60801.95960.json